Time;durP1;ratioP1;P1;durP2;ratioP2;P2;SDS_P1;SDS_P2;PMS_P1;PMS_P2;Temp;Humidity;BMP_temperature;BMP_pressure;BME280_temperature;BME280_humidity;BME280_pressure;Samples;Min_cycle;Max_cycle;Signal;HPM_P1;HPM_P2
2022/08/31 00:04:28;;;;;;;4.87;4.40;;;;;;;25.64;38.40;98787.91;7030947;28;20224;-79
2022/08/31 00:07:51;;;;;;;6.57;4.40;;;;;;;25.91;38.16;98793.53;7031594;28;20346;-80
2022/08/31 00:11:14;;;;;;;6.30;4.63;;;;;;;25.56;38.61;98796.06;7031030;28;20377;-79
2022/08/31 00:14:36;;;;;;;4.63;4.07;;;;;;;25.66;38.47;98787.59;7031290;28;20625;-79
2022/08/31 00:17:58;;;;;;;7.23;3.93;;;;;;;25.57;38.98;98795.75;7031638;28;20213;-79
2022/08/31 00:21:21;;;;;;;4.00;3.60;;;;;;;25.84;38.33;98792.25;7032254;28;20298;-79
2022/08/31 00:24:44;;;;;;;8.37;4.43;;;;;;;26.20;37.29;98774.69;7032633;28;20232;-79
2022/08/31 00:28:06;;;;;;;5.87;4.07;;;;;;;26.38;37.38;98789.56;7032584;28;20230;-79
2022/08/31 00:31:28;;;;;;;7.73;4.47;;;;;;;26.32;37.62;98788.84;7032011;28;20705;-79
2022/08/31 00:34:51;;;;;;;4.77;3.93;;;;;;;26.18;37.90;98785.25;7032846;28;20313;-79
2022/08/31 00:38:13;;;;;;;8.33;4.10;;;;;;;26.10;38.35;98766.63;7032662;28;20253;-79
2022/08/31 00:41:39;;;;;;;5.40;4.20;;;;;;;25.90;38.33;98777.25;7033792;28;20251;-79
2022/08/31 00:45:01;;;;;;;4.47;3.90;;;;;;;25.62;38.95;98729.41;7034614;28;20250;-79
2022/08/31 00:48:22;;;;;;;4.53;4.10;;;;;;;25.83;38.77;98782.34;7034690;28;20221;-79
2022/08/31 00:51:47;;;;;;;4.60;4.00;;;;;;;26.03;38.66;98777.28;7035791;28;20255;-80
2022/08/31 00:55:13;;;;;;;6.90;4.17;;;;;;;26.07;38.65;98767.22;7036078;28;20267;-79
2022/08/31 00:58:36;;;;;;;7.40;4.50;;;;;;;26.35;38.14;98774.41;7036779;28;20705;-79
2022/08/31 01:01:57;;;;;;;5.80;3.90;;;;;;;26.50;37.95;98787.09;7038936;28;20244;-79
2022/08/31 01:05:20;;;;;;;5.80;3.73;;;;;;;26.37;38.36;98794.25;7057380;28;20207;-79
2022/08/31 01:08:42;;;;;;;5.53;4.33;;;;;;;26.07;39.02;98799.59;7059037;28;20198;-79
2022/08/31 01:12:05;;;;;;;5.67;4.60;;;;;;;25.94;39.25;98828.84;7058360;28;20207;-79
2022/08/31 01:15:29;;;;;;;9.70;4.27;;;;;;;25.91;39.43;98851.56;7037338;28;20240;-79
2022/08/31 01:18:52;;;;;;;5.53;4.17;;;;;;;25.68;39.67;98835.91;7035311;28;20243;-79
2022/08/31 01:22:19;;;;;;;5.43;4.20;;;;;;;25.72;39.65;98834.16;7035900;28;20225;-79
2022/08/31 01:25:43;;;;;;;6.33;4.20;;;;;;;26.04;39.45;98852.69;7035718;28;20229;-79
2022/08/31 01:29:06;;;;;;;5.03;4.57;;;;;;;25.88;39.99;98857.63;7035269;28;20247;-79
2022/08/31 01:32:27;;;;;;;5.23;4.17;;;;;;;25.66;40.76;98868.50;7035410;28;20289;-79
2022/08/31 01:35:49;;;;;;;7.80;4.33;;;;;;;25.60;41.64;98872.47;7036855;28;20640;-79
2022/08/31 01:39:11;;;;;;;7.97;4.43;;;;;;;25.84;42.26;98867.66;7030539;28;20682;-79
2022/08/31 01:42:34;;;;;;;5.03;4.47;;;;;;;25.66;43.81;98867.69;7036485;28;20730;-79
2022/08/31 01:45:56;;;;;;;5.17;4.47;;;;;;;25.14;46.42;98873.44;7035627;28;20250;-79
2022/08/31 01:49:18;;;;;;;7.20;5.13;;;;;;;25.38;46.63;98854.88;7036188;28;20677;-79
2022/08/31 01:52:40;;;;;;;5.83;4.93;;;;;;;25.38;47.51;98864.00;7036204;28;20203;-79
2022/08/31 01:56:02;;;;;;;6.23;4.70;;;;;;;25.50;48.09;98880.94;7036042;28;20264;-79
2022/08/31 01:59:24;;;;;;;7.63;4.93;;;;;;;25.54;48.12;98875.63;7035543;28;20250;-79
2022/08/31 02:02:46;;;;;;;7.63;5.73;;;;;;;25.34;48.65;98878.69;7035762;28;20627;-79
2022/08/31 02:06:09;;;;;;;8.67;5.53;;;;;;;25.17;49.47;98873.66;7036653;28;20708;-79
2022/08/31 02:09:31;;;;;;;5.27;4.77;;;;;;;25.18;49.55;98883.56;7035294;28;20236;-79
2022/08/31 02:12:52;;;;;;;6.13;5.40;;;;;;;25.24;48.87;98831.94;7036272;28;20201;-79
2022/08/31 02:16:15;;;;;;;6.90;5.80;;;;;;;24.80;49.84;98829.47;7035800;28;20306;-79
2022/08/31 02:19:37;;;;;;;6.87;5.33;;;;;;;25.17;50.37;98867.28;7034517;28;20204;-79
2022/08/31 02:23:02;;;;;;;9.43;5.70;;;;;;;25.08;50.88;98878.19;7035951;28;20225;-79
2022/08/31 02:26:23;;;;;;;6.77;5.60;;;;;;;24.87;51.33;98871.31;7035856;28;20234;-79
2022/08/31 02:29:45;;;;;;;8.77;6.00;;;;;;;25.27;50.44;98879.06;7034950;28;20202;-79
2022/08/31 02:33:08;;;;;;;7.17;6.10;;;;;;;25.11;51.10;98885.88;7035311;28;20284;-78
2022/08/31 02:36:31;;;;;;;7.87;6.10;;;;;;;25.07;51.64;98889.53;7035275;28;20258;-79
2022/08/31 02:39:52;;;;;;;6.97;6.30;;;;;;;25.07;51.73;98873.78;7035984;28;20218;-79
2022/08/31 02:43:14;;;;;;;11.20;6.60;;;;;;;24.98;52.49;98896.81;7035801;28;20221;-79
2022/08/31 02:46:35;;;;;;;8.47;5.90;;;;;;;24.81;52.57;98891.78;7035802;28;20306;-79
2022/08/31 02:49:59;;;;;;;7.97;6.13;;;;;;;24.79;52.76;98896.78;7035494;28;20248;-79
2022/08/31 02:53:22;;;;;;;7.30;6.60;;;;;;;24.69;52.72;98872.09;7035738;28;20264;-79
2022/08/31 02:56:44;;;;;;;8.53;6.47;;;;;;;24.75;53.00;98881.09;7036235;28;20236;-79
2022/08/31 03:00:07;;;;;;;7.00;6.40;;;;;;;24.59;53.68;98887.94;7036114;28;20232;-79
2022/08/31 03:03:28;;;;;;;7.47;6.17;;;;;;;24.73;53.38;98892.44;7037669;28;20233;-79
2022/08/31 03:06:51;;;;;;;7.53;6.40;;;;;;;24.90;52.59;98891.97;7035448;28;20382;-78
2022/08/31 03:10:14;;;;;;;8.00;6.00;;;;;;;24.61;53.39;98872.72;7057264;28;20176;-79
2022/08/31 03:13:36;;;;;;;8.23;6.67;;;;;;;24.52;54.20;98877.22;7035662;28;20684;-79
2022/08/31 03:16:58;;;;;;;8.17;6.20;;;;;;;24.40;54.55;98890.59;7032801;28;20217;-79
2022/08/31 03:20:21;;;;;;;8.80;6.13;;;;;;;24.32;54.40;98893.16;7034841;28;20695;-79
2022/08/31 03:23:44;;;;;;;8.20;6.23;;;;;;;24.40;53.90;98885.09;7037227;28;20246;-79
2022/08/31 03:27:06;;;;;;;7.17;6.47;;;;;;;24.52;53.17;98876.38;7039292;28;20311;-79
2022/08/31 03:30:27;;;;;;;7.63;6.17;;;;;;;24.51;52.99;98889.38;7039710;28;20235;-79
2022/08/31 03:33:49;;;;;;;7.60;6.10;;;;;;;24.44;52.64;98868.78;7041789;28;20233;-79
2022/08/31 03:37:11;;;;;;;7.50;6.17;;;;;;;24.40;52.98;98862.19;7041064;28;20235;-78
2022/08/31 03:40:33;;;;;;;10.27;6.43;;;;;;;24.69;52.25;98879.53;7023712;28;20228;-79
2022/08/31 03:43:55;;;;;;;9.63;6.37;;;;;;;24.55;52.58;98862.84;7024284;28;20297;-79
2022/08/31 03:47:17;;;;;;;7.73;7.03;;;;;;;24.43;52.82;98864.38;7022210;28;20275;-78
2022/08/31 03:50:38;;;;;;;7.70;6.40;;;;;;;24.12;53.01;98852.06;7008145;28;20297;-79
2022/08/31 03:54:00;;;;;;;9.10;7.03;;;;;;;24.54;52.51;98885.22;7008321;28;20227;-79
2022/08/31 03:57:23;;;;;;;7.83;6.80;;;;;;;24.32;52.83;98884.91;7010678;28;20211;-80
2022/08/31 04:00:44;;;;;;;9.40;6.13;;;;;;;24.24;53.12;98852.47;7009726;28;20250;-79
2022/08/31 04:04:06;;;;;;;10.70;7.07;;;;;;;23.87;54.67;98896.31;7008949;28;20232;-79
2022/08/31 04:07:27;;;;;;;8.87;6.27;;;;;;;23.79;54.58;98872.16;7008304;28;20282;-79
2022/08/31 04:10:51;;;;;;;8.53;7.00;;;;;;;24.07;54.35;98896.97;7008804;28;20203;-79
2022/08/31 04:14:15;;;;;;;11.27;6.63;;;;;;;24.13;53.70;98901.31;7009859;28;20230;-79
2022/08/31 04:17:37;;;;;;;7.50;6.80;;;;;;;24.34;53.16;98890.94;7011550;28;20553;-79
2022/08/31 04:20:58;;;;;;;6.83;5.87;;;;;;;24.71;51.71;98902.94;7016062;28;20203;-79
2022/08/31 04:24:20;;;;;;;9.83;7.70;;;;;;;23.82;55.71;98907.34;7024418;28;20255;-81
2022/08/31 04:27:41;;;;;;;10.97;7.60;;;;;;;23.66;56.59;98895.66;7012409;28;20218;-79
2022/08/31 04:31:08;;;;;;;7.93;6.20;;;;;;;24.34;54.57;98912.97;7009412;28;20199;-79
2022/08/31 04:34:29;;;;;;;8.43;6.10;;;;;;;24.09;55.41;98919.56;7006987;28;20222;-79
2022/08/31 04:37:51;;;;;;;8.23;6.10;;;;;;;24.51;53.87;98910.59;7008341;28;20330;-78
2022/08/31 04:41:14;;;;;;;7.60;6.67;;;;;;;24.34;54.32;98918.50;7011254;28;20211;-79
2022/08/31 04:44:36;;;;;;;7.20;6.50;;;;;;;24.32;54.96;98927.06;7025857;28;20263;-79
2022/08/31 04:47:59;;;;;;;6.97;6.27;;;;;;;24.12;55.56;98927.25;7029526;28;20207;-79
2022/08/31 04:51:22;;;;;;;9.00;8.10;;;;;;;23.24;58.19;98920.16;7029111;28;20199;-79
2022/08/31 04:54:43;;;;;;;8.47;7.57;;;;;;;23.45;58.10;98938.22;7031888;28;20281;-79
2022/08/31 04:58:05;;;;;;;9.17;7.43;;;;;;;23.86;56.25;98933.22;7029182;28;20284;-81
2022/08/31 05:01:28;;;;;;;8.47;6.90;;;;;;;23.43;57.29;98877.09;7036921;28;20270;-80
2022/08/31 05:04:51;;;;;;;7.83;7.00;;;;;;;23.99;56.13;98927.91;7036361;28;20279;-80
2022/08/31 05:08:13;;;;;;;9.30;7.10;;;;;;;23.23;56.35;98899.25;7038473;28;20261;-80
2022/08/31 05:11:35;;;;;;;8.33;7.50;;;;;;;23.25;58.08;98924.56;7031252;28;20553;-80
2022/08/31 05:14:56;;;;;;;8.13;7.33;;;;;;;23.72;57.32;98929.50;7035062;28;20802;-80
2022/08/31 05:18:18;;;;;;;11.13;7.03;;;;;;;24.05;55.55;98936.94;7036414;28;20260;-80
2022/08/31 05:21:42;;;;;;;7.93;6.87;;;;;;;23.91;56.62;98944.25;7035896;28;20803;-80
2022/08/31 05:25:05;;;;;;;7.90;7.17;;;;;;;23.96;56.28;98938.69;7035555;28;20328;-80
2022/08/31 05:28:27;;;;;;;7.80;7.10;;;;;;;23.71;56.82;98944.38;7034559;28;20215;-80
2022/08/31 05:31:48;;;;;;;8.33;7.50;;;;;;;23.26;57.83;98923.44;7034407;28;20223;-80
2022/08/31 05:35:10;;;;;;;8.73;7.83;;;;;;;23.63;57.41;98947.72;7034640;28;20247;-81
2022/08/31 05:38:33;;;;;;;9.77;8.77;;;;;;;23.55;57.31;98949.13;7034346;28;20210;-78
2022/08/31 05:41:55;;;;;;;11.63;7.63;;;;;;;23.46;57.19;98963.78;7034571;28;20208;-79
2022/08/31 05:45:17;;;;;;;8.83;6.97;;;;;;;23.66;56.77;98942.44;7034713;28;20316;-80
2022/08/31 05:48:39;;;;;;;9.10;8.20;;;;;;;23.78;55.86;98964.94;7034760;28;20613;-79
2022/08/31 05:52:01;;;;;;;9.47;7.93;;;;;;;23.57;57.29;98966.22;7035215;28;20205;-80
2022/08/31 05:55:24;;;;;;;10.73;8.27;;;;;;;23.62;56.80;98970.84;7035482;28;20258;-80
2022/08/31 05:58:46;;;;;;;9.60;8.57;;;;;;;23.75;56.47;98967.44;7030831;28;20706;-79
2022/08/31 06:02:09;;;;;;;10.63;8.77;;;;;;;23.78;56.79;98958.63;7034750;28;20193;-77
2022/08/31 06:05:32;;;;;;;9.73;8.23;;;;;;;23.87;57.02;98977.03;7033348;28;20237;-80
2022/08/31 06:08:54;;;;;;;9.60;8.33;;;;;;;23.76;57.09;98963.59;7033512;28;20231;-80
2022/08/31 06:12:18;;;;;;;10.57;7.87;;;;;;;23.87;56.77;98979.78;7019927;28;20216;-79
2022/08/31 06:15:40;;;;;;;9.47;7.20;;;;;;;23.98;56.46;98975.88;7034239;28;20309;-78
2022/08/31 06:19:05;;;;;;;7.70;7.00;;;;;;;24.28;55.79;98972.84;7033236;28;20317;-79
2022/08/31 06:22:28;;;;;;;7.07;6.23;;;;;;;24.27;55.35;98946.41;7034257;28;20213;-79
2022/08/31 06:25:49;;;;;;;7.23;6.53;;;;;;;24.64;54.55;98974.19;7034031;28;20569;-80
2022/08/31 06:29:12;;;;;;;6.47;5.87;;;;;;;24.79;53.88;98979.50;7033587;28;20754;-81
2022/08/31 06:32:34;;;;;;;7.50;6.63;;;;;;;24.89;53.55;98975.84;7033377;28;20749;-79
2022/08/31 06:35:55;;;;;;;7.03;6.37;;;;;;;24.76;53.40;98963.56;7033622;28;20368;-80
2022/08/31 06:39:17;;;;;;;7.50;6.80;;;;;;;24.68;53.99;98979.94;7033022;28;20297;-79
2022/08/31 06:42:39;;;;;;;8.30;7.50;;;;;;;24.40;54.76;98958.66;7033400;28;20316;-80
2022/08/31 06:46:01;;;;;;;9.53;7.10;;;;;;;24.65;54.17;98983.28;7033432;28;20696;-79
2022/08/31 06:49:24;;;;;;;7.57;6.60;;;;;;;24.70;53.33;98939.06;7032246;28;20214;-80
2022/08/31 06:52:47;;;;;;;7.87;6.90;;;;;;;24.77;53.74;98976.22;7033779;28;20201;-79
2022/08/31 06:56:10;;;;;;;8.50;7.63;;;;;;;24.64;54.50;98996.25;7033893;28;20609;-79
2022/08/31 06:59:32;;;;;;;8.37;7.57;;;;;;;24.84;54.57;99004.28;7025814;28;20222;-80
2022/08/31 07:02:55;;;;;;;7.70;6.90;;;;;;;24.85;53.79;98974.78;7005040;28;20214;-80
2022/08/31 07:06:20;;;;;;;7.70;7.00;;;;;;;24.78;54.48;98988.91;7016924;28;20248;-79
2022/08/31 07:09:41;;;;;;;7.87;7.07;;;;;;;24.68;55.05;98985.44;7029208;28;20209;-79
2022/08/31 07:13:03;;;;;;;8.50;7.67;;;;;;;24.75;54.55;98996.94;7007555;28;20257;-79
2022/08/31 07:16:26;;;;;;;7.73;6.90;;;;;;;24.80;54.05;99003.25;7004844;28;20284;-79
2022/08/31 07:19:48;;;;;;;8.90;6.80;;;;;;;24.79;54.67;99000.78;7004663;28;20241;-79
2022/08/31 07:23:10;;;;;;;8.50;7.07;;;;;;;24.75;54.63;99002.47;7004400;28;20287;-78
2022/08/31 07:26:33;;;;;;;7.97;6.77;;;;;;;24.94;53.96;99006.09;7004491;28;20231;-79
2022/08/31 07:29:58;;;;;;;8.37;7.43;;;;;;;25.03;53.69;99004.38;7003663;28;20255;-80
2022/08/31 07:33:20;;;;;;;8.60;7.47;;;;;;;24.79;54.68;98995.25;7011604;28;20679;-79
2022/08/31 07:44:01;;;;;;;11.93;7.17;;;;;;;24.38;54.59;99003.09;7024690;28;20209;-79
2022/08/31 07:47:24;;;;;;;12.13;7.97;;;;;;;24.00;55.19;99008.59;7014654;28;20558;-78
2022/08/31 07:50:45;;;;;;;7.67;6.97;;;;;;;24.04;54.47;98996.75;7016136;28;20203;-79
2022/08/31 07:54:09;;;;;;;9.33;6.80;;;;;;;24.35;52.21;98992.63;7027773;28;20679;-79
2022/08/31 07:57:35;;;;;;;8.60;6.33;;;;;;;24.10;52.01;99008.53;7026944;28;20210;-79
2022/08/31 08:01:01;;;;;;;7.93;5.57;;;;;;;24.00;51.77;99008.59;7007630;28;20207;-79
2022/08/31 08:04:25;;;;;;;7.93;6.03;;;;;;;24.09;51.46;99010.50;7003080;28;20310;-78
2022/08/31 08:07:47;;;;;;;8.77;6.03;;;;;;;24.12;50.88;99001.63;7005025;28;20339;-79
2022/08/31 08:11:15;;;;;;;8.03;5.40;;;;;;;24.47;49.45;99017.88;7009355;28;20554;-79
2022/08/31 08:14:38;;;;;;;6.30;4.77;;;;;;;24.62;47.99;99022.44;7018906;28;20229;-80
2022/08/31 08:18:00;;;;;;;7.13;5.07;;;;;;;24.53;47.49;99011.19;7029511;28;20214;-80
2022/08/31 08:21:21;;;;;;;5.40;4.90;;;;;;;24.64;46.89;99023.81;7003526;28;20704;-79
2022/08/31 08:24:46;;;;;;;5.30;4.77;;;;;;;24.53;46.35;99026.91;7003208;28;20816;-79
2022/08/31 08:28:10;;;;;;;7.83;5.20;;;;;;;24.33;47.62;99038.13;7004774;28;20210;-79
2022/08/31 08:31:31;;;;;;;6.83;5.10;;;;;;;24.55;46.67;99020.00;7023069;28;20218;-81
2022/08/31 08:34:53;;;;;;;10.57;5.27;;;;;;;24.42;46.88;99047.44;7011126;28;20219;-79
2022/08/31 08:38:15;;;;;;;7.20;4.77;;;;;;;24.56;46.39;99040.13;7013880;28;20211;-79
2022/08/31 08:41:39;;;;;;;5.57;5.07;;;;;;;24.54;45.77;99040.41;7015116;28;20553;-80
2022/08/31 08:45:03;;;;;;;7.07;5.33;;;;;;;24.15;46.43;99036.91;7009243;28;20230;-79
2022/08/31 08:48:26;;;;;;;6.60;4.70;;;;;;;24.90;45.60;99044.50;7003673;28;20206;-80
2022/08/31 08:51:50;;;;;;;7.40;4.50;;;;;;;25.09;44.36;99052.84;7018700;28;20203;-81
2022/08/31 08:55:15;;;;;;;12.90;5.27;;;;;;;25.22;44.23;99057.69;7032442;28;20803;-80
2022/08/31 08:58:37;;;;;;;6.37;5.10;;;;;;;25.21;44.01;99047.75;7043853;28;20199;-81
2022/08/31 09:02:05;;;;;;;5.70;4.67;;;;;;;25.30;43.83;99062.59;7047351;28;20209;-80
2022/08/31 09:05:46;;;;;;;5.60;5.00;;;;;;;25.39;43.57;99055.31;7034061;28;20774;-79
2022/08/31 09:09:24;;;;;;;7.53;5.40;;;;;;;25.26;44.10;99070.63;7031195;28;20229;-82
2022/08/31 09:12:50;;;;;;;6.23;4.80;;;;;;;25.61;43.21;99072.16;7030751;28;20286;-79
2022/08/31 09:16:20;;;;;;;8.47;4.83;;;;;;;25.09;43.57;99023.34;7031199;28;20228;-79
2022/08/31 09:19:59;;;;;;;8.27;5.17;;;;;;;25.34;44.11;99050.66;7031329;28;20210;-83
2022/08/31 09:23:20;;;;;;;5.50;4.93;;;;;;;25.35;43.93;99046.78;7025674;28;20225;-79
2022/08/31 09:26:59;;;;;;;10.27;6.23;;;;;;;25.41;44.09;99066.84;7031212;28;20268;-80
2022/08/31 09:30:34;;;;;;;6.40;5.03;;;;;;;24.72;45.37;99066.50;7035823;28;20338;-80
2022/08/31 09:33:56;;;;;;;8.53;5.33;;;;;;;25.18;44.28;99071.25;7036590;28;20234;-80
2022/08/31 09:37:21;;;;;;;6.57;5.30;;;;;;;25.05;43.24;98972.59;7036669;28;20215;-80
2022/08/31 09:40:46;;;;;;;9.47;5.80;;;;;;;25.18;43.88;99053.88;7018541;28;20558;-82
2022/08/31 09:44:20;;;;;;;7.70;5.27;;;;;;;25.05;44.55;99069.19;7006480;28;20217;-81
2022/08/31 09:47:49;;;;;;;8.20;5.67;;;;;;;25.03;45.76;99054.88;7006128;28;20186;-80
2022/08/31 09:51:21;;;;;;;9.97;5.50;;;;;;;25.28;46.14;99067.56;7008618;28;20638;-80
2022/08/31 09:58:35;;;;;;;8.43;6.27;;;;;;;25.49;44.73;99057.94;7016245;28;21638;-80
2022/08/31 10:01:59;;;;;;;6.57;5.83;;;;;;;25.60;44.99;99056.69;7005930;28;20213;-81
2022/08/31 10:05:39;;;;;;;8.03;5.67;;;;;;;25.58;44.89;99065.28;7006473;28;20696;-80
2022/08/31 10:09:02;;;;;;;7.80;5.50;;;;;;;25.34;44.56;99067.22;7006625;28;20994;-81
2022/08/31 10:12:38;;;;;;;6.20;5.60;;;;;;;25.26;44.65;99051.28;7006858;28;20205;-80
2022/08/31 10:16:05;;;;;;;7.20;5.57;;;;;;;25.50;44.27;99060.41;7027769;28;20232;-80
2022/08/31 10:19:36;;;;;;;7.13;5.07;;;;;;;25.62;43.69;99066.34;7020030;28;20589;-80
2022/08/31 10:23:05;;;;;;;6.00;5.40;;;;;;;25.74;43.45;99065.88;7033187;28;20253;-81
2022/08/31 10:26:33;;;;;;;8.77;5.97;;;;;;;25.92;43.00;99068.72;7034794;28;20581;-80
2022/08/31 10:29:59;;;;;;;7.43;5.50;;;;;;;26.17;42.47;99061.97;7031494;28;20246;-80
2022/08/31 10:35:00;;;;;;;7.23;5.27;;;;;;;26.13;43.17;99069.25;7035044;28;20248;-80
2022/08/31 10:37:11;;;;;;;7.27;5.27;;;;;;;26.06;42.88;99057.72;7035761;28;20226;-79
2022/08/31 10:40:37;;;;;;;7.33;5.63;;;;;;;26.37;42.60;99070.78;7037719;28;20192;-82
2022/08/31 10:44:04;;;;;;;10.40;5.47;;;;;;;26.69;41.27;99058.94;7052693;28;20641;-80
2022/08/31 10:47:30;;;;;;;8.90;5.50;;;;;;;26.24;42.50;99056.91;7028826;28;20200;-80
2022/08/31 10:51:04;;;;;;;6.37;5.10;;;;;;;26.22;42.07;99053.59;7004081;28;20210;-79
2022/08/31 10:54:32;;;;;;;8.20;5.60;;;;;;;26.74;41.55;99056.91;7005291;28;20240;-80
2022/08/31 10:58:01;;;;;;;6.03;5.43;;;;;;;26.39;41.87;99059.41;7003953;28;20220;-80
2022/08/31 11:01:28;;;;;;;6.30;5.20;;;;;;;26.37;42.16;99065.25;7004596;28;20201;-80
2022/08/31 11:05:00;;;;;;;7.17;5.73;;;;;;;25.99;42.51;99069.16;7004781;28;20233;-80
2022/08/31 11:08:33;;;;;;;6.27;5.67;;;;;;;26.05;42.89;99065.19;7003879;28;20292;-80
2022/08/31 11:12:05;;;;;;;8.43;5.70;;;;;;;26.25;42.41;99066.84;7003817;28;20188;-80
2022/08/31 11:15:43;;;;;;;9.87;6.10;;;;;;;25.62;43.45;99058.06;7003791;28;20218;-79
2022/08/31 11:19:30;;;;;;;7.53;5.70;;;;;;;25.47;43.86;99068.44;7003398;28;20198;-80
2022/08/31 11:23:28;;;;;;;8.37;5.97;;;;;;;25.70;43.92;99059.31;7003324;28;20287;-80
2022/08/31 11:26:54;;;;;;;7.77;5.80;;;;;;;24.94;45.19;99059.38;7003167;28;20222;-80
2022/08/31 11:30:23;;;;;;;9.67;6.20;;;;;;;24.77;46.12;99071.97;7017276;28;20235;-81
2022/08/31 11:33:49;;;;;;;7.27;5.47;;;;;;;25.20;45.79;99057.97;7037570;28;20222;-80
2022/08/31 11:37:12;;;;;;;8.00;5.77;;;;;;;25.52;45.05;99057.34;7042786;28;20229;-80
2022/08/31 11:41:02;;;;;;;10.47;5.70;;;;;;;25.50;44.69;99063.19;7023764;28;20227;-80
2022/08/31 11:45:00;;;;;;;6.87;5.70;;;;;;;25.24;44.65;99069.28;7004045;28;20237;-79
2022/08/31 11:48:58;;;;;;;9.23;5.80;;;;;;;25.65;44.82;99065.72;6970605;28;20209;-79
2022/08/31 11:52:33;;;;;;;9.40;5.63;;;;;;;25.12;45.81;99066.91;6995891;28;20216;-80
2022/08/31 11:55:58;;;;;;;11.27;6.33;;;;;;;25.28;45.59;99053.78;7029562;28;20234;-79
2022/08/31 11:59:27;;;;;;;10.90;7.03;;;;;;;24.70;49.36;99022.66;7018311;28;20200;-79
2022/08/31 12:03:03;;;;;;;9.47;7.03;;;;;;;25.10;50.78;99041.53;7013468;28;20671;-80
2022/08/31 12:06:57;;;;;;;9.67;7.00;;;;;;;25.42;48.84;99061.03;7001764;28;20224;-80
2022/08/31 12:10:33;;;;;;;9.30;6.60;;;;;;;25.29;50.61;99067.28;7002180;28;20271;-79
2022/08/31 12:14:00;;;;;;;8.67;6.80;;;;;;;25.16;50.04;99025.72;7002116;28;20191;-80
2022/08/31 12:17:29;;;;;;;7.80;6.47;;;;;;;25.39;48.46;99035.97;7002955;28;20185;-80
2022/08/31 12:24:44;;;;;;;8.37;6.90;;;;;;;26.05;46.60;99042.25;7002883;28;20604;-80
2022/08/31 12:28:11;;;;;;;9.47;6.17;;;;;;;25.91;47.06;99046.91;7002542;28;20201;-80
2022/08/31 12:31:35;;;;;;;8.57;6.13;;;;;;;26.04;45.18;99029.56;7000813;28;20199;-81
2022/08/31 12:35:05;;;;;;;8.57;6.13;;;;;;;25.98;44.97;99050.94;7004681;28;20228;-79
2022/08/31 12:38:26;;;;;;;6.80;6.10;;;;;;;26.44;44.69;99043.59;7023566;28;20193;-80
2022/08/31 12:41:52;;;;;;;10.10;6.40;;;;;;;26.74;44.37;99036.72;7030738;28;20204;-78
2022/08/31 12:45:14;;;;;;;10.63;6.20;;;;;;;26.80;43.44;99036.34;7001833;28;20689;-80
2022/08/31 12:48:50;;;;;;;11.43;6.33;;;;;;;26.71;42.60;99024.31;7002539;28;20231;-79
2022/08/31 12:52:23;;;;;;;7.30;6.23;;;;;;;26.93;42.47;99021.69;7011104;28;20197;-80
2022/08/31 12:55:49;;;;;;;12.07;7.03;;;;;;;26.34;42.96;99020.78;7029205;28;20259;-79
2022/08/31 12:59:17;;;;;;;8.33;6.67;;;;;;;26.40;43.32;99020.41;7025097;28;20257;-80
2022/08/31 13:02:41;;;;;;;9.03;6.50;;;;;;;27.30;41.23;98980.00;7005574;28;20640;-78
2022/08/31 13:06:07;;;;;;;7.93;6.60;;;;;;;27.07;42.34;99003.13;7007637;28;20253;-80
2022/08/31 13:09:31;;;;;;;7.23;6.33;;;;;;;27.86;40.98;98991.53;7007537;28;20198;-79
2022/08/31 13:12:56;;;;;;;8.70;6.67;;;;;;;28.63;38.19;98998.50;7007830;28;20751;-80
2022/08/31 13:16:18;;;;;;;9.37;6.80;;;;;;;27.81;40.15;98988.88;7008319;28;20304;-79
2022/08/31 13:19:39;;;;;;;6.43;5.83;;;;;;;28.47;38.68;98983.38;7007427;28;20291;-80
2022/08/31 13:23:02;;;;;;;8.70;6.33;;;;;;;27.65;41.11;98978.41;7007171;28;20306;-79
2022/08/31 13:26:25;;;;;;;9.17;6.57;;;;;;;27.66;40.49;98963.44;7007908;28;20324;-79
2022/08/31 13:29:49;;;;;;;7.07;5.93;;;;;;;27.73;40.75;98970.16;7006162;28;20210;-80
2022/08/31 13:33:22;;;;;;;8.57;6.30;;;;;;;27.93;40.32;98950.31;7007522;28;20183;-80
2022/08/31 13:36:46;;;;;;;7.57;5.87;;;;;;;28.40;39.58;98957.19;7007659;28;20229;-79
2022/08/31 13:40:11;;;;;;;8.40;6.03;;;;;;;28.39;38.81;98936.97;7012373;28;20207;-81
2022/08/31 13:43:34;;;;;;;7.20;5.90;;;;;;;28.85;38.26;98961.53;7034902;28;20205;-80
2022/08/31 13:47:01;;;;;;;8.33;5.83;;;;;;;29.27;36.94;98945.06;7035928;28;20281;-80
2022/08/31 13:50:24;;;;;;;7.33;5.80;;;;;;;29.12;37.67;98941.91;7036186;28;20195;-80
2022/08/31 13:54:05;;;;;;;6.57;5.60;;;;;;;28.60;38.58;98940.03;7048605;28;20210;-80
2022/08/31 13:57:28;;;;;;;11.13;6.50;;;;;;;28.83;37.53;98947.16;7048094;28;20266;-79
2022/08/31 14:00:54;;;;;;;10.80;6.00;;;;;;;27.83;39.00;98938.66;7013861;28;20288;-80
2022/08/31 14:04:37;;;;;;;8.70;5.70;;;;;;;28.22;38.44;98920.19;7006779;28;20277;-80
2022/08/31 14:08:02;;;;;;;8.50;6.20;;;;;;;28.85;37.41;98933.78;7006294;28;20245;-80
2022/08/31 14:11:27;;;;;;;7.60;5.87;;;;;;;28.79;37.42;98941.41;7007515;28;20207;-80
2022/08/31 14:14:49;;;;;;;6.10;5.20;;;;;;;29.04;37.72;98926.03;7004908;28;20224;-80
2022/08/31 14:18:16;;;;;;;8.30;6.00;;;;;;;28.91;36.82;98926.94;7006302;28;20206;-80
2022/08/31 14:21:42;;;;;;;8.13;5.90;;;;;;;28.80;37.23;98937.53;7020074;28;20202;-80
2022/08/31 14:25:04;;;;;;;5.50;5.00;;;;;;;28.81;36.90;98939.16;7034650;28;20233;-80
2022/08/31 14:28:40;;;;;;;6.50;5.80;;;;;;;28.96;35.10;98929.59;7033545;28;20205;-80
2022/08/31 14:32:03;;;;;;;5.03;4.53;;;;;;;29.05;36.13;98919.34;7034056;28;20269;-80
2022/08/31 14:35:26;;;;;;;10.33;6.17;;;;;;;28.04;38.77;98937.03;7033597;28;20241;-80
2022/08/31 14:38:49;;;;;;;7.77;6.33;;;;;;;27.84;40.47;98932.00;7033735;28;20373;-79
2022/08/31 14:42:15;;;;;;;18.17;10.50;;;;;;;26.95;45.03;98930.06;7033790;28;20296;-79
2022/08/31 14:45:36;;;;;;;13.80;8.40;;;;;;;26.77;45.89;98951.16;7033024;28;20236;-79
2022/08/31 14:48:58;;;;;;;14.43;9.33;;;;;;;26.82;49.59;98912.31;7032289;28;20243;-78
2022/08/31 14:52:21;;;;;;;12.97;9.27;;;;;;;26.22;51.60;98954.91;7032631;28;20298;-79
2022/08/31 14:55:43;;;;;;;14.10;10.00;;;;;;;26.37;51.85;98953.84;7032771;28;20720;-78
2022/08/31 14:59:12;;;;;;;14.03;10.73;;;;;;;26.14;53.11;98947.28;7032021;28;20205;-78
2022/08/31 15:02:35;;;;;;;19.90;11.53;;;;;;;25.45;55.02;98936.22;7032029;28;20216;-79
2022/08/31 15:05:58;;;;;;;15.10;9.23;;;;;;;25.04;54.17;98931.50;7032089;28;20281;-77
2022/08/31 15:09:21;;;;;;;10.67;8.00;;;;;;;24.94;54.14;98926.94;7032047;28;20206;-78
2022/08/31 15:12:43;;;;;;;7.67;6.87;;;;;;;25.54;50.24;98928.09;7031848;28;20213;-78
2022/08/31 15:16:06;;;;;;;17.60;10.50;;;;;;;25.35;51.19;98918.97;7032387;28;20648;-80
2022/08/31 15:19:28;;;;;;;11.47;9.70;;;;;;;24.91;53.27;98922.03;7031551;28;20231;-79
2022/08/31 15:22:50;;;;;;;8.27;7.53;;;;;;;25.12;51.78;98928.91;7031494;28;20205;-79
2022/08/31 15:26:15;;;;;;;11.87;7.90;;;;;;;24.78;54.18;98925.47;7031621;28;20321;-79
2022/08/31 15:29:37;;;;;;;8.67;7.23;;;;;;;25.01;53.73;98926.59;7029828;28;20212;-79
2022/08/31 15:33:00;;;;;;;10.10;7.40;;;;;;;25.20;53.47;98900.63;7031498;28;20199;-80
2022/08/31 15:36:23;;;;;;;9.87;8.70;;;;;;;25.08;54.52;98930.59;7031845;28;20216;-80
2022/08/31 15:39:48;;;;;;;10.87;7.77;;;;;;;25.52;53.23;98919.28;7009643;28;20232;-81
2022/08/31 15:43:14;;;;;;;8.73;7.80;;;;;;;25.51;54.18;98918.47;7019640;28;20700;-78
2022/08/31 15:50:17;;;;;;;11.50;9.17;;;;;;;25.66;55.34;98918.22;7032895;28;20189;-80
2022/08/31 15:53:41;;;;;;;9.00;8.10;;;;;;;25.98;53.38;98920.22;7031863;28;20205;-79
2022/08/31 15:57:04;;;;;;;10.80;8.87;;;;;;;25.47;54.27;98845.63;7032105;28;20296;-81
2022/08/31 16:00:31;;;;;;;11.07;9.43;;;;;;;25.89;55.10;98909.00;7031259;28;20203;-81
2022/08/31 16:03:55;;;;;;;10.00;9.10;;;;;;;25.86;55.05;98917.91;7026037;28;20255;-80
2022/08/31 16:07:17;;;;;;;10.13;9.10;;;;;;;26.01;55.32;98925.16;7012952;28;20217;-80
2022/08/31 16:10:42;;;;;;;11.03;9.43;;;;;;;25.85;56.46;98910.75;7017884;28;20698;-79
2022/08/31 16:14:08;;;;;;;10.63;9.17;;;;;;;26.02;53.82;98897.19;7007929;28;20197;-80
2022/08/31 16:17:31;;;;;;;9.20;7.70;;;;;;;26.34;52.77;98888.06;7023123;28;20209;-80
2022/08/31 16:20:53;;;;;;;8.27;7.33;;;;;;;26.36;52.36;98897.69;7036001;28;20222;-80
2022/08/31 16:24:17;;;;;;;9.20;8.30;;;;;;;26.17;53.37;98894.19;7035435;28;20221;-80